Time;durP1;ratioP1;P1;durP2;ratioP2;P2;SDS_P1;SDS_P2;PMS_P1;PMS_P2;Temp;Humidity;BMP_temperature;BMP_pressure;BME280_temperature;BME280_humidity;BME280_pressure;Samples;Min_cycle;Max_cycle;Signal;HPM_P1;HPM_P2
2022/01/07 00:05:33;;;;;;;10.00;5.40;;;;;;;-6.66;82.94;99778.83;444555;1270;141342;-65
2022/01/07 00:15:40;;;;;;;9.80;6.60;;;;;;;-6.77;82.97;99787.08;437612;1270;141111;-66
2022/01/07 00:25:46;;;;;;;9.40;5.40;;;;;;;-6.89;83.10;99790.70;439727;1270;141455;-65
2022/01/07 00:35:52;;;;;;;9.60;5.60;;;;;;;-7.01;83.31;99803.00;447137;1271;142308;-65
2022/01/07 00:45:58;;;;;;;8.90;5.30;;;;;;;-7.09;83.44;99802.56;446222;1271;142227;-66
2022/01/07 00:56:04;;;;;;;12.90;7.20;;;;;;;-7.12;83.71;99806.45;442824;1270;141719;-65
2022/01/07 01:06:10;;;;;;;12.00;7.50;;;;;;;-7.04;84.07;99805.00;445956;1270;144910;-64
2022/01/07 01:16:16;;;;;;;16.30;9.10;;;;;;;-7.00;84.25;99806.23;442124;1271;141427;-64
2022/01/07 01:26:21;;;;;;;18.60;10.30;;;;;;;-7.06;84.32;99800.55;447280;1271;142107;-65
2022/01/07 01:36:26;;;;;;;;;;;;;;;-7.06;84.50;99798.01;446507;1270;141671;-64
2022/01/07 01:46:31;;;;;;;16.20;10.00;;;;;;;-7.11;84.52;99801.35;447487;1270;128563;-66
2022/01/07 01:56:37;;;;;;;16.50;9.60;;;;;;;-7.21;84.69;99798.52;440718;1270;142796;-65
2022/01/07 02:06:43;;;;;;;16.20;8.50;;;;;;;-7.21;84.90;99805.66;446190;1271;142021;-66
2022/01/07 02:16:49;;;;;;;19.60;9.60;;;;;;;-7.23;85.03;99805.46;443172;1270;142864;-66
2022/01/07 02:26:56;;;;;;;15.40;7.90;;;;;;;-7.33;84.91;99809.77;443397;1270;142701;-65
2022/01/07 02:37:02;;;;;;;15.20;9.40;;;;;;;-7.47;85.02;99806.54;437250;1270;141842;-66
2022/01/07 02:47:08;;;;;;;11.10;7.20;;;;;;;-7.58;85.02;99803.67;447291;1270;141963;-66
2022/01/07 02:57:13;;;;;;;14.90;9.30;;;;;;;-7.62;85.24;99808.21;446594;1271;141795;-66
2022/01/07 03:07:19;;;;;;;15.10;9.60;;;;;;;-7.57;85.34;99808.10;447268;1270;142091;-65
2022/01/07 03:17:25;;;;;;;18.20;10.30;;;;;;;-7.71;85.23;99807.08;446256;1271;143304;-65
2022/01/07 03:27:31;;;;;;;15.10;10.20;;;;;;;-7.84;85.34;99804.85;446506;1271;142675;-65
2022/01/07 03:37:37;;;;;;;16.30;8.90;;;;;;;-7.89;85.24;99796.47;439529;1270;142555;-65
2022/01/07 03:47:43;;;;;;;16.10;10.40;;;;;;;-7.96;85.21;99804.67;440561;1270;142445;-65
2022/01/07 03:57:49;;;;;;;23.10;11.50;;;;;;;-8.04;85.10;99808.98;429448;1271;142744;-65
2022/01/07 04:07:55;;;;;;;19.40;13.00;;;;;;;-7.94;85.51;99813.19;438021;1271;142019;-65
2022/01/07 04:18:01;;;;;;;14.40;8.60;;;;;;;-7.50;86.17;99812.78;447316;1270;142414;-65
2022/01/07 04:28:09;;;;;;;15.00;8.60;;;;;;;-6.78;86.67;99803.73;443164;1270;141904;-65
2022/01/07 04:38:15;;;;;;;17.10;11.20;;;;;;;-6.46;86.14;99789.39;447366;1270;143057;-65
2022/01/07 04:48:20;;;;;;;14.30;8.20;;;;;;;-6.22;86.16;99787.38;430697;1270;142021;-65
2022/01/07 04:58:25;;;;;;;;;;;;;;;-5.98;85.89;99787.00;437016;1271;142643;-66
2022/01/07 05:08:30;;;;;;;13.20;7.10;;;;;;;-6.14;85.34;99781.98;447038;1272;128098;-65
2022/01/07 05:18:35;;;;;;;;;;;;;;;-6.34;85.34;99774.85;446543;1270;196212;-66
2022/01/07 05:28:40;;;;;;;15.30;7.10;;;;;;;-6.55;85.36;99760.02;447557;1270;129555;-65
2022/01/07 05:38:45;;;;;;;;;;;;;;;-6.67;85.63;99757.02;445997;1269;145899;-65
2022/01/07 05:48:50;;;;;;;11.40;7.10;;;;;;;-6.76;85.71;99760.34;446121;1271;129083;-66
2022/01/07 05:58:55;;;;;;;;;;;;;;;-6.78;86.00;99763.73;447381;1271;141914;-64
2022/01/07 06:09:00;;;;;;;16.10;6.90;;;;;;;-6.73;86.17;99753.40;447554;1271;129301;-65
2022/01/07 06:19:04;;;;;;;;;;;;;;;-6.76;86.19;99757.95;446548;1270;142831;-66
2022/01/07 06:29:10;;;;;;;9.40;7.50;;;;;;;-6.78;86.27;99764.93;441237;1271;128511;-65
2022/01/07 06:39:18;;;;;;;12.50;8.90;;;;;;;-6.77;86.31;99768.68;446551;1271;143729;-65
2022/01/07 06:49:24;;;;;;;17.60;9.80;;;;;;;-6.51;86.57;99770.96;438666;1271;141552;-63
2022/01/07 06:59:30;;;;;;;12.20;7.50;;;;;;;-6.10;86.60;99774.48;439089;1271;141738;-65
2022/01/07 07:09:35;;;;;;;11.20;7.70;;;;;;;-5.45;86.35;99780.64;446541;1271;142539;-66
2022/01/07 07:19:42;;;;;;;15.20;8.40;;;;;;;-4.72;85.32;99786.66;432405;1271;142422;-65
2022/01/07 07:29:47;;;;;;;13.20;7.90;;;;;;;-4.15;84.56;99787.52;447287;1271;142534;-64
2022/01/07 07:39:53;;;;;;;14.60;6.90;;;;;;;-3.37;83.59;99793.86;446613;1271;142667;-65
2022/01/07 07:49:59;;;;;;;17.20;10.90;;;;;;;-2.79;82.41;99781.42;444544;1271;142124;-63
2022/01/07 08:00:07;;;;;;;12.50;7.50;;;;;;;-2.42;80.82;99768.99;440269;1271;143510;-65
2022/01/07 08:10:13;;;;;;;16.30;8.00;;;;;;;-2.52;79.84;99769.76;447384;1271;141852;-64
2022/01/07 08:20:19;;;;;;;19.00;9.50;;;;;;;-2.55;79.29;99782.30;447282;1271;142034;-65
2022/01/07 08:30:26;;;;;;;22.60;11.60;;;;;;;-2.29;78.82;99776.95;440267;1270;142341;-63
2022/01/07 08:40:33;;;;;;;14.30;9.40;;;;;;;-1.41;78.44;99766.63;441673;1271;141187;-64
2022/01/07 08:50:38;;;;;;;;;;;;;;;-0.14;76.89;99754.83;447251;1271;142412;-65
2022/01/07 09:00:44;;;;;;;12.70;8.80;;;;;;;0.62;75.15;99744.59;446882;1271;127389;-74
2022/01/07 09:10:50;;;;;;;13.30;9.70;;;;;;;2.21;74.01;99744.98;438482;1270;142418;-72
2022/01/07 09:20:56;;;;;;;13.30;9.70;;;;;;;4.12;71.48;99739.14;430465;1271;141272;-61
2022/01/07 09:31:03;;;;;;;13.00;10.30;;;;;;;6.35;68.60;99740.58;446243;1271;141645;-59
2022/01/07 09:41:09;;;;;;;13.20;8.20;;;;;;;7.87;66.13;99741.26;447248;1270;142996;-68
2022/01/07 09:51:16;;;;;;;11.60;8.20;;;;;;;5.54;65.46;99738.51;437574;1271;141362;-75
2022/01/07 10:01:25;;;;;;;10.30;7.10;;;;;;;3.72;65.18;99731.14;437685;1270;140195;-81
2022/01/07 10:11:31;;;;;;;10.10;6.40;;;;;;;2.79;65.33;99724.88;447246;1270;140516;-61
2022/01/07 10:21:37;;;;;;;11.90;6.90;;;;;;;1.80;65.03;99710.33;437066;1270;140580;-72
2022/01/07 10:31:43;;;;;;;10.50;7.00;;;;;;;1.23;65.33;99701.91;447319;1270;141758;-64
2022/01/07 10:42:02;;;;;;;10.50;5.60;;;;;;;0.74;65.12;99696.13;430453;1271;141285;-65
2022/01/07 10:52:23;;;;;;;11.30;4.80;;;;;;;0.27;65.29;99687.97;447288;1270;140281;-65
2022/01/07 11:02:35;;;;;;;8.90;6.20;;;;;;;-0.07;65.18;99678.81;447378;1270;140674;-70
2022/01/07 11:12:43;;;;;;;12.50;6.20;;;;;;;-0.18;65.87;99676.77;446682;1270;140471;-70
2022/01/07 11:22:49;;;;;;;;;;;;;;;-0.20;66.03;99671.30;444992;1271;141582;-62
2022/01/07 11:32:55;;;;;;;9.50;5.60;;;;;;;-0.14;66.26;99666.39;440365;1271;126457;-64
2022/01/07 11:43:04;;;;;;;7.60;4.30;;;;;;;-0.12;66.02;99663.41;446648;1270;141095;-72
2022/01/07 11:53:10;;;;;;;9.00;5.20;;;;;;;-0.09;66.30;99660.77;447499;1270;141176;-67
2022/01/07 12:03:31;;;;;;;9.40;5.10;;;;;;;-0.10;66.25;99656.69;445712;1270;140973;-64
2022/01/07 12:13:40;;;;;;;8.80;5.30;;;;;;;-0.09;65.82;99645.63;447483;1270;140741;-63
2022/01/07 12:23:46;;;;;;;9.90;5.70;;;;;;;-0.09;65.63;99641.00;447483;1270;141323;-63
2022/01/07 12:33:53;;;;;;;7.00;3.40;;;;;;;-0.11;65.20;99629.34;446480;1271;141154;-64
2022/01/07 12:44:07;;;;;;;6.00;4.00;;;;;;;-0.16;65.26;99620.98;447105;1270;141648;-64
2022/01/07 12:54:13;;;;;;;11.40;5.90;;;;;;;-0.19;65.01;99613.14;446595;1270;140621;-70
2022/01/07 13:04:22;;;;;;;10.10;5.80;;;;;;;-0.27;65.48;99602.10;447004;1270;220166;-75
2022/01/07 13:14:29;;;;;;;11.70;5.30;;;;;;;-0.34;65.46;99591.05;447087;1270;141294;-71
2022/01/07 13:24:36;;;;;;;10.30;6.10;;;;;;;-0.45;65.49;99582.31;436022;1270;141187;-68
2022/01/07 13:34:43;;;;;;;13.40;7.50;;;;;;;-0.66;65.96;99572.89;433437;1270;140835;-67
2022/01/07 13:45:02;;;;;;;14.60;8.30;;;;;;;-0.89;66.26;99561.96;447103;1270;141749;-65
2022/01/07 13:55:25;;;;;;;16.40;11.00;;;;;;;-0.97;67.12;99551.79;446362;1270;141359;-74
2022/01/07 14:05:31;;;;;;;23.00;13.10;;;;;;;-0.95;67.15;99550.55;445622;1270;143717;-63
2022/01/07 14:15:42;;;;;;;24.40;16.00;;;;;;;-0.96;67.41;99550.91;442474;1270;142061;-70
2022/01/07 14:25:49;;;;;;;25.40;15.40;;;;;;;-1.03;67.47;99547.06;447232;1270;141377;-65
2022/01/07 14:35:57;;;;;;;24.50;12.70;;;;;;;-1.24;67.54;99547.92;447286;1271;142599;-67
2022/01/07 14:46:05;;;;;;;18.20;12.40;;;;;;;-1.54;67.82;99551.65;444177;1271;141237;-66
2022/01/07 14:56:11;;;;;;;47.80;23.40;;;;;;;-1.83;68.13;99552.42;447390;1270;140675;-71
2022/01/07 15:06:16;;;;;;;27.20;15.30;;;;;;;-2.06;68.53;99554.60;446666;1270;141046;-71
2022/01/07 15:16:40;;;;;;;23.30;12.50;;;;;;;-2.24;68.66;99559.63;445636;1270;140507;-68
2022/01/07 15:26:47;;;;;;;19.50;13.20;;;;;;;-2.40;69.11;99549.52;447432;1271;140894;-61
2022/01/07 15:36:52;;;;;;;;;;;;;;;-2.49;69.31;99541.91;446581;1270;142000;-59
2022/01/07 15:46:58;;;;;;;26.20;15.20;;;;;;;-2.51;69.53;99527.19;447596;1270;129605;-63
2022/01/07 15:57:05;;;;;;;27.70;16.50;;;;;;;-2.43;69.54;99523.16;447332;1271;141703;-64
2022/01/07 16:07:11;;;;;;;28.10;18.10;;;;;;;-2.40;69.62;99522.77;447142;1270;140840;-72
2022/01/07 16:17:17;;;;;;;23.60;13.30;;;;;;;-2.47;69.70;99523.19;446863;1271;141715;-70
2022/01/07 16:27:23;;;;;;;26.90;15.40;;;;;;;-2.54;69.60;99519.84;446458;1270;142052;-70
2022/01/07 16:37:29;;;;;;;28.20;14.70;;;;;;;-2.58;69.66;99512.02;447187;1271;141300;-72
2022/01/07 16:47:35;;;;;;;24.70;14.40;;;;;;;-2.59;69.59;99505.16;447132;1270;141731;-71
2022/01/07 16:57:40;;;;;;;24.70;14.00;;;;;;;-2.56;69.26;99496.39;446391;1270;143021;-69
2022/01/07 17:07:47;;;;;;;25.10;13.40;;;;;;;-2.47;69.06;99494.39;447237;1270;142368;-74
2022/01/07 17:17:53;;;;;;;20.30;13.30;;;;;;;-2.40;68.72;99486.59;447388;1271;140687;-71
2022/01/07 17:27:59;;;;;;;18.80;11.40;;;;;;;-2.50;68.37;99489.64;443527;1270;140926;-75
2022/01/07 17:38:05;;;;;;;19.50;11.80;;;;;;;-2.64;68.29;99483.11;431675;1271;140918;-65
2022/01/07 17:48:11;;;;;;;17.40;10.40;;;;;;;-2.81;68.16;99476.28;434386;1271;142487;-66
2022/01/07 17:58:19;;;;;;;21.40;9.60;;;;;;;-2.94;67.94;99470.09;445889;1270;149088;-70
2022/01/07 18:08:25;;;;;;;21.10;12.00;;;;;;;-3.01;67.82;99466.73;445239;1271;141057;-69
2022/01/07 18:18:31;;;;;;;18.30;11.10;;;;;;;-3.03;67.54;99459.20;437316;1273;141934;-69
2022/01/07 18:28:38;;;;;;;16.00;9.00;;;;;;;-3.09;67.20;99449.52;429955;1271;142120;-69
2022/01/07 18:38:43;;;;;;;20.80;11.60;;;;;;;-3.19;66.89;99448.40;443113;1271;140621;-71
2022/01/07 18:48:50;;;;;;;17.50;10.60;;;;;;;-3.19;66.54;99442.06;435895;1271;142846;-70
2022/01/07 18:58:56;;;;;;;18.10;9.70;;;;;;;-3.12;66.08;99433.10;447419;1271;141445;-68
2022/01/07 19:09:01;;;;;;;24.10;10.90;;;;;;;-3.09;65.50;99425.71;447156;1271;140516;-68
2022/01/07 19:19:08;;;;;;;16.30;9.30;;;;;;;-3.09;65.00;99429.48;446603;1271;142118;-69
2022/01/07 19:29:15;;;;;;;15.40;8.30;;;;;;;-3.12;64.73;99419.05;447427;1271;141008;-69
2022/01/07 19:39:21;;;;;;;18.90;9.00;;;;;;;-3.08;64.18;99416.96;443567;1270;142201;-69
2022/01/07 19:49:27;;;;;;;12.60;8.50;;;;;;;-3.05;63.78;99410.59;447470;1270;141953;-70
2022/01/07 19:59:33;;;;;;;12.50;7.50;;;;;;;-2.98;63.60;99411.71;445881;1270;141041;-69
2022/01/07 20:09:42;;;;;;;14.00;7.30;;;;;;;-2.92;63.43;99408.21;437706;1270;141831;-70
2022/01/07 20:19:48;;;;;;;11.80;6.40;;;;;;;-2.84;63.54;99404.53;447290;1270;142319;-69
2022/01/07 20:29:54;;;;;;;14.90;7.30;;;;;;;-2.80;63.41;99395.73;447327;1271;142782;-61
2022/01/07 20:40:00;;;;;;;15.50;7.80;;;;;;;-2.75;63.45;99392.42;446640;1271;141832;-61
2022/01/07 20:50:08;;;;;;;10.10;6.90;;;;;;;-2.74;63.35;99388.13;447210;1271;141584;-62
2022/01/07 21:00:16;;;;;;;16.40;8.80;;;;;;;-2.74;63.41;99386.57;446340;1271;142350;-62
2022/01/07 21:10:22;;;;;;;16.40;7.40;;;;;;;-2.71;63.28;99381.92;434703;1271;142023;-60
2022/01/07 21:20:28;;;;;;;16.30;8.70;;;;;;;-2.70;63.37;99385.51;447265;1271;141176;-60
2022/01/07 21:30:35;;;;;;;18.70;9.50;;;;;;;-2.73;63.43;99372.52;446481;1270;141984;-62
2022/01/07 21:40:40;;;;;;;;;;;;;;;-2.72;63.45;99362.91;445318;1271;141717;-60
2022/01/07 21:50:46;;;;;;;18.00;9.90;;;;;;;-2.77;63.49;99360.41;434390;1271;127571;-61
2022/01/07 22:00:51;;;;;;;17.00;8.10;;;;;;;-2.87;63.33;99361.22;446639;1270;142338;-62
2022/01/07 22:10:58;;;;;;;15.20;8.30;;;;;;;-2.89;63.14;99353.38;444942;1271;141478;-61
2022/01/07 22:21:04;;;;;;;19.50;9.10;;;;;;;-2.93;63.14;99348.80;439626;1271;142383;-64
2022/01/07 22:31:10;;;;;;;15.20;7.80;;;;;;;-2.97;62.87;99355.86;436607;1270;142440;-62
2022/01/07 22:41:16;;;;;;;19.90;9.20;;;;;;;-3.06;62.64;99359.58;446968;1271;142142;-61
2022/01/07 22:51:22;;;;;;;20.70;10.30;;;;;;;-3.22;62.53;99361.45;445188;1271;142332;-62
2022/01/07 23:01:28;;;;;;;17.00;9.00;;;;;;;-3.37;62.70;99356.15;447403;1270;141592;-61
2022/01/07 23:11:34;;;;;;;17.80;9.50;;;;;;;-3.48;62.71;99349.93;447339;1270;141240;-62
2022/01/07 23:21:40;;;;;;;22.60;11.10;;;;;;;-3.56;62.76;99341.80;442536;1269;142555;-61
2022/01/07 23:31:46;;;;;;;19.00;9.80;;;;;;;-3.66;62.87;99338.14;443130;1271;140990;-61
2022/01/07 23:41:52;;;;;;;19.10;10.50;;;;;;;-3.79;62.94;99335.01;447348;1270;141522;-61
2022/01/07 23:51:57;;;;;;;19.30;9.50;;;;;;;-3.92;63.14;99329.30;444260;1270;141164;-61
